PortugalFixed distance
Ultra Trail do Marão UTM 60k
1–2 Apr2023
Distance
60km
Finishers
11394 men19 women
Winning time
6:41:29h
Median pace
5.42km/h
Pace distribution
113 finishers · 4.09–8.97 km/h · mean 5.65
Every finisher ran the same 60 km course, so these paces are directly comparable.
Histogram of finisher pace. 113 finishers ranged from 4.09 to 8.97 kilometres per hour, with a mean of 5.65 and a median of 5.42. The busiest band is 5.0 to 5.5 kilometres per hour, with 32 finishers.
Results
Ranks 1–50 of 113
| Rank | Runner | Time | Pace | Cat. | Placing |
|---|---|---|---|---|---|
| 1 | Furfor Running Project | 6:41:29h | 8.97 | M23 | 1st M · 1st M23 |
| 2 | Cidep Fornos Lusavouga | 7:22:38h | 8.13 | M23 | 2nd M · 2nd M23 |
| 3 | Futebol Clube Penafiel | 7:25:26h | 8.08 | M40 | 3rd M · 1st M40 |
| 4 | CDM Vértice | 7:29:05h | 8.02 | M40 | 4th M · 2nd M40 |
| 5 | Clube Efacec /Bis3 IMO | 7:38:32h | 7.85 | M23 | 5th M · 3rd M23 |
| 6 | 7:46:21h | 7.72 | M23 | 6th M · 4th M23 | |
| 7 | GO! Runners | 8:01:07h | 7.48 | M40 | 7th M · 3rd M40 |
| 8 | CDM Vértice | 8:04:23h | 7.43 | M40 | 8th M · 4th M40 |
| 9 | Clube Efacec /Bis3 IMO | 8:08:52h | 7.36 | M40 | 9th M · 5th M40 |
| 10 | Clube Efacec /Bis3 IMO | 8:15:34h | 7.26 | M35 | 10th M · 1st M35 |
| 11 | Montanha Clube Trail R... | 8:30:50h | 7.05 | M40 | 11th M · 6th M40 |
| 12 | CDM Vértice | 8:39:36h | 6.93 | M50 | 12th M · 1st M50 |
| 13 | CDM Vértice | 8:39:51h | 6.92 | M55 | 13th M · 1st M55 |
| 14 | GD Leões da Guarda - L... | 8:42:25h | 6.89 | M35 | 14th M · 2nd M35 |
| 15 | Coutadas Trail Team | 8:45:40h | 6.85 | M50 | 15th M · 2nd M50 |
| 16 | Lobos do Monte Run | 8:48:01h | 6.82 | M40 | 16th M · 7th M40 |
| 17 | 8:56:36h | 6.71 | M50 | 17th M · 3rd M50 | |
| 18 | 8:56:54h | 6.71 | M45 | 18th M · 1st M45 | |
| 19 | Adatrailrunning | 9:03:39h | 6.62 | M50 | 19th M · 4th M50 |
| 20 | Running Sport Trail | 9:06:51h | 6.58 | M50 | 20th M · 5th M50 |
| 21 | Fox Running Team | 9:09:47h | 6.55 | M23 | 21st M · 5th M23 |
| 22 | Tribu Trail | 9:10:25h | 6.54 | M40 | 22nd M · 8th M40 |
| 23 | Fátima Trail Team | 9:12:48h | 6.51 | M40 | 23rd M · 9th M40 |
| 24 | TRM | 9:17:48h | 6.45 | M23 | 24th M · 6th M23 |
| 25 | Fox Running Team | 9:19:36h | 6.43 | M40 | 25th M · 10th M40 |
| 26 | Douroconta | 9:21:58h | 6.41 | M40 | 26th M · 11th M40 |
| 27 | Trail Runners Portimão | 9:25:31h | 6.37 | M35 | 27th M · 3rd M35 |
| 28 | Lobos do Monte Run | 9:26:02h | 6.36 | M35 | 28th M · 4th M35 |
| 29 | Cazafantasmas .Team | 9:26:11h | 6.36 | M45 | 29th M · 2nd M45 |
| 30 | Montanha Clube Trail R... | 9:35:16h | 6.26 | M45 | 30th M · 3rd M45 |
| 31 | CDM Vértice | 9:39:25h | 6.21 | W50 | 1st F · 1st W50 |
| 32 | Crocodilos/Misterpc | 9:47:46h | 6.13 | M35 | 31st M · 5th M35 |
| 33 | Beapt | 9:53:01h | 6.07 | M40 | 32nd M · 12th M40 |
| 34 | Sportarc | 9:54:59h | 6.05 | M35 | 33rd M · 6th M35 |
| 35 | Clube Efacec /Bis3 IMO | 9:55:35h | 6.04 | M40 | 34th M · 13th M40 |
| 36 | Fátima Trail Team | 9:59:23h | 6.01 | M45 | 35th M · 4th M45 |
| 37 | Pcrunners | 10:00:08h | 6.00 | M40 | 36th M · 14th M40 |
| 38 | 10:07:07h | 5.93 | M23 | 37th M · 7th M23 | |
| 39 | 10:11:06h | 5.89 | M35 | 38th M · 7th M35 | |
| 40 | CRP Ribafria | 10:17:32h | 5.83 | W35 | 2nd F · 1st W35 |
| 41 | Não fazemos nem mais u... | 10:22:45h | 5.78 | M50 | 39th M · 6th M50 |
| 42 | Strendure Running Team | 10:26:17h | 5.75 | M45 | 40th M · 5th M45 |
| 43 | O QUE Queremos É Monte | 10:28:38h | 5.73 | M45 | 41st M · 6th M45 |
| 44 | Pcrunners | 10:30:21h | 5.71 | M45 | 42nd M · 7th M45 |
| 45 | CRP Ribafria | 10:35:33h | 5.66 | W35 | 3rd F · 2nd W35 |
| 46 | Scpombal/Trailteam | 10:40:18h | 5.62 | M35 | 43rd M · 8th M35 |
| 47 | Trailrunning Vienna | 10:41:56h | 5.61 | W50 | 4th F · 2nd W50 |
| 48 | 10:46:37h | 5.57 | M45 | 44th M · 8th M45 | |
| 49 | 10:48:17h | 5.55 | M45 | 45th M · 9th M45 | |
| 50 | 10:48:38h | 5.55 | M35 | 46th M · 9th M35 |
- 1Furfor Running Project1st M · 1st M23Time6:41:29hPace8.97Cat.M23
- 2Cidep Fornos Lusavouga2nd M · 2nd M23Time7:22:38hPace8.13Cat.M23
- 3Futebol Clube Penafiel3rd M · 1st M40Time7:25:26hPace8.08Cat.M40
- 4CDM Vértice4th M · 2nd M40Time7:29:05hPace8.02Cat.M40
- 5Clube Efacec /Bis3 IMO5th M · 3rd M23Time7:38:32hPace7.85Cat.M23
- 66th M · 4th M23Time7:46:21hPace7.72Cat.M23
- 7GO! Runners7th M · 3rd M40Time8:01:07hPace7.48Cat.M40
- 8CDM Vértice8th M · 4th M40Time8:04:23hPace7.43Cat.M40
- 9Clube Efacec /Bis3 IMO9th M · 5th M40Time8:08:52hPace7.36Cat.M40
- 10Clube Efacec /Bis3 IMO10th M · 1st M35Time8:15:34hPace7.26Cat.M35
- 11Montanha Clube Trail R...11th M · 6th M40Time8:30:50hPace7.05Cat.M40
- 12CDM Vértice12th M · 1st M50Time8:39:36hPace6.93Cat.M50
- 13CDM Vértice13th M · 1st M55Time8:39:51hPace6.92Cat.M55
- 14GD Leões da Guarda - L...14th M · 2nd M35Time8:42:25hPace6.89Cat.M35
- 15Coutadas Trail Team15th M · 2nd M50Time8:45:40hPace6.85Cat.M50
- 16Lobos do Monte Run16th M · 7th M40Time8:48:01hPace6.82Cat.M40
- 1717th M · 3rd M50Time8:56:36hPace6.71Cat.M50
- 1818th M · 1st M45Time8:56:54hPace6.71Cat.M45
- 19Adatrailrunning19th M · 4th M50Time9:03:39hPace6.62Cat.M50
- 20Running Sport Trail20th M · 5th M50Time9:06:51hPace6.58Cat.M50
- 21Fox Running Team21st M · 5th M23Time9:09:47hPace6.55Cat.M23
- 22Tribu Trail22nd M · 8th M40Time9:10:25hPace6.54Cat.M40
- 23Fátima Trail Team23rd M · 9th M40Time9:12:48hPace6.51Cat.M40
- 24TRM24th M · 6th M23Time9:17:48hPace6.45Cat.M23
- 25Fox Running Team25th M · 10th M40Time9:19:36hPace6.43Cat.M40
- 26Douroconta26th M · 11th M40Time9:21:58hPace6.41Cat.M40
- 27Trail Runners Portimão27th M · 3rd M35Time9:25:31hPace6.37Cat.M35
- 28Lobos do Monte Run28th M · 4th M35Time9:26:02hPace6.36Cat.M35
- 29Cazafantasmas .Team29th M · 2nd M45Time9:26:11hPace6.36Cat.M45
- 30Montanha Clube Trail R...30th M · 3rd M45Time9:35:16hPace6.26Cat.M45
- 31CDM Vértice1st F · 1st W50Time9:39:25hPace6.21Cat.W50
- 32Crocodilos/Misterpc31st M · 5th M35Time9:47:46hPace6.13Cat.M35
- 33Beapt32nd M · 12th M40Time9:53:01hPace6.07Cat.M40
- 34Sportarc33rd M · 6th M35Time9:54:59hPace6.05Cat.M35
- 35Clube Efacec /Bis3 IMO34th M · 13th M40Time9:55:35hPace6.04Cat.M40
- 36Fátima Trail Team35th M · 4th M45Time9:59:23hPace6.01Cat.M45
- 37Pcrunners36th M · 14th M40Time10:00:08hPace6.00Cat.M40
- 3837th M · 7th M23Time10:07:07hPace5.93Cat.M23
- 3938th M · 7th M35Time10:11:06hPace5.89Cat.M35
- 40CRP Ribafria2nd F · 1st W35Time10:17:32hPace5.83Cat.W35
- 41Não fazemos nem mais u...39th M · 6th M50Time10:22:45hPace5.78Cat.M50
- 42Strendure Running Team40th M · 5th M45Time10:26:17hPace5.75Cat.M45
- 43O QUE Queremos É Monte41st M · 6th M45Time10:28:38hPace5.73Cat.M45
- 44Pcrunners42nd M · 7th M45Time10:30:21hPace5.71Cat.M45
- 45CRP Ribafria3rd F · 2nd W35Time10:35:33hPace5.66Cat.W35
- 46Scpombal/Trailteam43rd M · 8th M35Time10:40:18hPace5.62Cat.M35
- 47Trailrunning Vienna4th F · 2nd W50Time10:41:56hPace5.61Cat.W50
- 4844th M · 8th M45Time10:46:37hPace5.57Cat.M45
- 4945th M · 9th M45Time10:48:17hPace5.55Cat.M45
- 5046th M · 9th M35Time10:48:38hPace5.55Cat.M35
Showing ranks 1–50 of 113